Dalzell, Illinois
Current Conditions -  °F | °C
As of 6:35 PM on Wednesday 22 Oct 2014 (Local Time) from KVYS Reporting Station
Clear Clear  
Wind Chill: 55°   Ceiling: Unl
Heat Index: 55°   Visibility: 10mi
Dew Point: 35°   Wind: 7mph
Humidity: 48%   Direction: 140°SE
Pressure: 30.24"   Gusts: NA
Location:  41.36°N, 89.18°W
Report Text: KVYS 222335Z AUTO 14006KT 10SM CLR 13/02 A3024 RMK AO2 T01260019
Loading
Personal Weather Stations






























Interactive Weather Map
Tropical Storm Tracking
New forecast layout! Learn more

10-Day Weather Forecast

Advertisements
Track Severe Weather on mobile